sensor_id;sensor_type;location;lat;lon;timestamp;P1;durP1;ratioP1;P2;durP2;ratioP2
51961;SDS011;37986;51.238;17.128;2022-08-21T00:00:12;8.88;;;8.05;;
51961;SDS011;37986;51.238;17.128;2022-08-21T00:02:54;9.03;;;8.23;;
51961;SDS011;37986;51.238;17.128;2022-08-21T00:05:20;9.23;;;8.33;;
51961;SDS011;37986;51.238;17.128;2022-08-21T00:07:47;9.23;;;8.33;;
51961;SDS011;37986;51.238;17.128;2022-08-21T00:10:13;8.78;;;7.92;;
51961;SDS011;37986;51.238;17.128;2022-08-21T00:12:40;8.75;;;7.15;;
51961;SDS011;37986;51.238;17.128;2022-08-21T00:15:07;7.70;;;6.95;;
51961;SDS011;37986;51.238;17.128;2022-08-21T00:17:35;9.18;;;8.38;;
51961;SDS011;37986;51.238;17.128;2022-08-21T00:20:03;8.13;;;7.33;;
51961;SDS011;37986;51.238;17.128;2022-08-21T00:22:32;8.98;;;8.00;;
51961;SDS011;37986;51.238;17.128;2022-08-21T00:24:57;9.13;;;8.23;;
51961;SDS011;37986;51.238;17.128;2022-08-21T00:27:23;11.68;;;9.20;;
51961;SDS011;37986;51.238;17.128;2022-08-21T00:29:49;10.78;;;9.65;;
51961;SDS011;37986;51.238;17.128;2022-08-21T00:32:19;12.28;;;10.98;;
51961;SDS011;37986;51.238;17.128;2022-08-21T00:34:48;11.70;;;10.40;;
51961;SDS011;37986;51.238;17.128;2022-08-21T00:37:14;11.88;;;10.63;;
51961;SDS011;37986;51.238;17.128;2022-08-21T00:39:40;12.53;;;10.43;;
51961;SDS011;37986;51.238;17.128;2022-08-21T00:42:06;11.93;;;10.75;;
51961;SDS011;37986;51.238;17.128;2022-08-21T00:44:32;11.68;;;10.03;;
51961;SDS011;37986;51.238;17.128;2022-08-21T00:46:58;10.58;;;9.48;;
51961;SDS011;37986;51.238;17.128;2022-08-21T00:49:23;11.22;;;9.80;;
51961;SDS011;37986;51.238;17.128;2022-08-21T00:51:50;12.20;;;9.68;;
51961;SDS011;37986;51.238;17.128;2022-08-21T00:54:22;9.75;;;8.63;;
51961;SDS011;37986;51.238;17.128;2022-08-21T00:56:52;9.45;;;8.40;;
51961;SDS011;37986;51.238;17.128;2022-08-21T00:59:20;8.80;;;7.92;;
51961;SDS011;37986;51.238;17.128;2022-08-21T01:01:47;8.95;;;8.05;;
51961;SDS011;37986;51.238;17.128;2022-08-21T01:04:14;8.60;;;7.70;;
51961;SDS011;37986;51.238;17.128;2022-08-21T01:06:42;8.78;;;7.47;;
51961;SDS011;37986;51.238;17.128;2022-08-21T01:09:13;8.35;;;7.55;;
51961;SDS011;37986;51.238;17.128;2022-08-21T01:11:44;11.08;;;7.58;;
51961;SDS011;37986;51.238;17.128;2022-08-21T01:14:12;6.97;;;6.28;;
51961;SDS011;37986;51.238;17.128;2022-08-21T01:16:40;8.75;;;7.10;;
51961;SDS011;37986;51.238;17.128;2022-08-21T01:19:08;8.03;;;6.80;;
51961;SDS011;37986;51.238;17.128;2022-08-21T01:21:34;7.00;;;6.22;;
51961;SDS011;37986;51.238;17.128;2022-08-21T01:24:00;6.10;;;5.50;;
51961;SDS011;37986;51.238;17.128;2022-08-21T01:26:27;5.85;;;5.35;;
51961;SDS011;37986;51.238;17.128;2022-08-21T01:28:58;4.70;;;4.15;;
51961;SDS011;37986;51.238;17.128;2022-08-21T01:31:29;6.30;;;4.58;;
51961;SDS011;37986;51.238;17.128;2022-08-21T01:33:56;6.53;;;4.60;;
51961;SDS011;37986;51.238;17.128;2022-08-21T01:36:23;4.05;;;3.65;;
51961;SDS011;37986;51.238;17.128;2022-08-21T01:38:50;4.40;;;4.00;;
51961;SDS011;37986;51.238;17.128;2022-08-21T01:41:16;3.50;;;3.20;;
51961;SDS011;37986;51.238;17.128;2022-08-21T01:43:42;3.72;;;3.20;;
51961;SDS011;37986;51.238;17.128;2022-08-21T01:46:09;4.03;;;3.30;;
51961;SDS011;37986;51.238;17.128;2022-08-21T01:48:37;3.22;;;2.92;;
51961;SDS011;37986;51.238;17.128;2022-08-21T01:51:03;3.80;;;3.27;;
51961;SDS011;37986;51.238;17.128;2022-08-21T01:53:31;5.55;;;3.62;;
51961;SDS011;37986;51.238;17.128;2022-08-21T01:56:00;4.12;;;3.62;;
51961;SDS011;37986;51.238;17.128;2022-08-21T01:58:26;3.52;;;3.00;;
51961;SDS011;37986;51.238;17.128;2022-08-21T02:00:52;5.15;;;2.70;;
51961;SDS011;37986;51.238;17.128;2022-08-21T02:03:18;3.77;;;3.17;;
51961;SDS011;37986;51.238;17.128;2022-08-21T02:05:44;3.62;;;2.95;;
51961;SDS011;37986;51.238;17.128;2022-08-21T02:08:10;4.22;;;3.50;;
51961;SDS011;37986;51.238;17.128;2022-08-21T02:10:36;5.58;;;3.37;;
51961;SDS011;37986;51.238;17.128;2022-08-21T02:13:02;3.90;;;3.60;;
51961;SDS011;37986;51.238;17.128;2022-08-21T02:15:29;5.53;;;4.78;;
51961;SDS011;37986;51.238;17.128;2022-08-21T02:17:57;4.10;;;3.70;;
51961;SDS011;37986;51.238;17.128;2022-08-21T02:20:36;4.22;;;3.72;;
51961;SDS011;37986;51.238;17.128;2022-08-21T02:23:00;5.85;;;3.70;;
51961;SDS011;37986;51.238;17.128;2022-08-21T02:25:26;4.42;;;3.42;;
51961;SDS011;37986;51.238;17.128;2022-08-21T02:27:55;4.10;;;3.20;;
51961;SDS011;37986;51.238;17.128;2022-08-21T02:30:28;3.58;;;2.80;;
51961;SDS011;37986;51.238;17.128;2022-08-21T02:32:53;4.12;;;3.25;;
51961;SDS011;37986;51.238;17.128;2022-08-21T02:35:20;3.87;;;3.27;;
51961;SDS011;37986;51.238;17.128;2022-08-21T02:37:54;2.95;;;2.65;;
51961;SDS011;37986;51.238;17.128;2022-08-21T02:40:24;5.30;;;3.00;;
51961;SDS011;37986;51.238;17.128;2022-08-21T02:42:53;4.90;;;2.92;;
51961;SDS011;37986;51.238;17.128;2022-08-21T02:45:19;3.35;;;3.05;;
51961;SDS011;37986;51.238;17.128;2022-08-21T02:47:53;3.37;;;3.08;;
51961;SDS011;37986;51.238;17.128;2022-08-21T02:50:18;3.10;;;2.80;;
51961;SDS011;37986;51.238;17.128;2022-08-21T02:52:53;3.87;;;2.75;;
51961;SDS011;37986;51.238;17.128;2022-08-21T02:55:20;3.12;;;2.42;;
51961;SDS011;37986;51.238;17.128;2022-08-21T02:57:48;2.90;;;2.60;;
51961;SDS011;37986;51.238;17.128;2022-08-21T03:00:15;4.10;;;2.72;;
51961;SDS011;37986;51.238;17.128;2022-08-21T03:02:41;2.77;;;2.58;;
51961;SDS011;37986;51.238;17.128;2022-08-21T03:05:08;3.37;;;3.08;;
51961;SDS011;37986;51.238;17.128;2022-08-21T03:07:36;2.98;;;2.67;;
51961;SDS011;37986;51.238;17.128;2022-08-21T03:10:04;3.37;;;3.02;;
51961;SDS011;37986;51.238;17.128;2022-08-21T03:12:31;4.62;;;3.60;;
51961;SDS011;37986;51.238;17.128;2022-08-21T03:14:57;4.25;;;3.37;;
51961;SDS011;37986;51.238;17.128;2022-08-21T03:17:24;4.40;;;3.65;;
51961;SDS011;37986;51.238;17.128;2022-08-21T03:19:50;3.75;;;3.40;;
51961;SDS011;37986;51.238;17.128;2022-08-21T03:22:16;3.77;;;3.47;;
51961;SDS011;37986;51.238;17.128;2022-08-21T03:24:42;4.80;;;3.92;;
51961;SDS011;37986;51.238;17.128;2022-08-21T03:27:10;4.37;;;3.83;;
51961;SDS011;37986;51.238;17.128;2022-08-21T03:29:38;4.35;;;3.95;;
51961;SDS011;37986;51.238;17.128;2022-08-21T03:32:05;4.22;;;3.67;;
51961;SDS011;37986;51.238;17.128;2022-08-21T03:34:33;7.28;;;4.42;;
51961;SDS011;37986;51.238;17.128;2022-08-21T03:36:59;4.03;;;3.62;;
51961;SDS011;37986;51.238;17.128;2022-08-21T03:39:24;4.08;;;3.65;;
51961;SDS011;37986;51.238;17.128;2022-08-21T03:41:50;4.28;;;3.87;;
51961;SDS011;37986;51.238;17.128;2022-08-21T03:44:18;4.33;;;3.92;;
51961;SDS011;37986;51.238;17.128;2022-08-21T03:46:43;4.17;;;3.77;;
51961;SDS011;37986;51.238;17.128;2022-08-21T03:49:09;4.47;;;4.08;;
51961;SDS011;37986;51.238;17.128;2022-08-21T03:51:35;4.00;;;3.58;;
51961;SDS011;37986;51.238;17.128;2022-08-21T03:54:01;6.50;;;3.87;;
51961;SDS011;37986;51.238;17.128;2022-08-21T03:56:28;5.35;;;3.83;;
51961;SDS011;37986;51.238;17.128;2022-08-21T03:58:54;4.00;;;3.60;;
51961;SDS011;37986;51.238;17.128;2022-08-21T04:01:19;3.87;;;3.52;;
51961;SDS011;37986;51.238;17.128;2022-08-21T04:03:45;3.95;;;3.40;;
51961;SDS011;37986;51.238;17.128;2022-08-21T04:06:11;4.30;;;3.90;;
51961;SDS011;37986;51.238;17.128;2022-08-21T04:08:37;4.28;;;3.98;;
51961;SDS011;37986;51.238;17.128;2022-08-21T04:11:03;3.70;;;3.40;;
51961;SDS011;37986;51.238;17.128;2022-08-21T04:13:30;3.87;;;3.47;;
51961;SDS011;37986;51.238;17.128;2022-08-21T04:15:56;3.17;;;2.87;;
51961;SDS011;37986;51.238;17.128;2022-08-21T04:18:23;3.98;;;3.45;;
51961;SDS011;37986;51.238;17.128;2022-08-21T04:20:50;3.98;;;3.17;;
51961;SDS011;37986;51.238;17.128;2022-08-21T04:23:19;3.65;;;3.00;;
51961;SDS011;37986;51.238;17.128;2022-08-21T04:25:45;5.72;;;3.08;;
51961;SDS011;37986;51.238;17.128;2022-08-21T04:28:11;4.47;;;3.58;;
51961;SDS011;37986;51.238;17.128;2022-08-21T04:30:37;4.22;;;3.08;;
51961;SDS011;37986;51.238;17.128;2022-08-21T04:33:03;4.20;;;3.80;;
51961;SDS011;37986;51.238;17.128;2022-08-21T04:35:29;4.00;;;3.35;;
51961;SDS011;37986;51.238;17.128;2022-08-21T04:37:55;3.72;;;3.42;;
51961;SDS011;37986;51.238;17.128;2022-08-21T04:40:23;3.72;;;3.42;;
51961;SDS011;37986;51.238;17.128;2022-08-21T04:42:52;3.10;;;2.80;;
51961;SDS011;37986;51.238;17.128;2022-08-21T04:45:26;3.92;;;3.37;;
51961;SDS011;37986;51.238;17.128;2022-08-21T04:47:55;5.72;;;3.10;;
51961;SDS011;37986;51.238;17.128;2022-08-21T04:50:30;3.00;;;2.70;;
51961;SDS011;37986;51.238;17.128;2022-08-21T04:56:10;3.58;;;3.27;;
51961;SDS011;37986;51.238;17.128;2022-08-21T04:58:41;3.22;;;2.92;;
51961;SDS011;37986;51.238;17.128;2022-08-21T05:01:08;4.03;;;2.90;;
51961;SDS011;37986;51.238;17.128;2022-08-21T05:03:38;3.98;;;2.40;;
51961;SDS011;37986;51.238;17.128;2022-08-21T05:06:06;2.55;;;2.35;;
51961;SDS011;37986;51.238;17.128;2022-08-21T05:08:36;3.40;;;3.10;;
51961;SDS011;37986;51.238;17.128;2022-08-21T05:11:04;3.45;;;2.60;;
51961;SDS011;37986;51.238;17.128;2022-08-21T05:13:30;4.28;;;3.22;;
51961;SDS011;37986;51.238;17.128;2022-08-21T05:15:57;3.30;;;3.00;;
51961;SDS011;37986;51.238;17.128;2022-08-21T05:18:24;2.10;;;1.90;;
51961;SDS011;37986;51.238;17.128;2022-08-21T05:20:50;5.28;;;2.70;;
51961;SDS011;37986;51.238;17.128;2022-08-21T05:23:16;1.98;;;1.77;;
51961;SDS011;37986;51.238;17.128;2022-08-21T05:25:43;3.08;;;2.05;;
51961;SDS011;37986;51.238;17.128;2022-08-21T05:28:09;2.30;;;2.10;;
51961;SDS011;37986;51.238;17.128;2022-08-21T05:30:35;2.30;;;1.95;;
51961;SDS011;37986;51.238;17.128;2022-08-21T05:33:03;2.45;;;2.25;;
51961;SDS011;37986;51.238;17.128;2022-08-21T05:35:30;1.65;;;1.50;;
51961;SDS011;37986;51.238;17.128;2022-08-21T05:37:57;1.70;;;1.60;;
51961;SDS011;37986;51.238;17.128;2022-08-21T05:40:25;1.67;;;1.50;;
51961;SDS011;37986;51.238;17.128;2022-08-21T05:42:52;1.57;;;1.40;;
51961;SDS011;37986;51.238;17.128;2022-08-21T05:45:20;2.10;;;1.90;;
51961;SDS011;37986;51.238;17.128;2022-08-21T05:47:51;2.50;;;1.90;;
51961;SDS011;37986;51.238;17.128;2022-08-21T05:50:17;2.30;;;2.00;;
51961;SDS011;37986;51.238;17.128;2022-08-21T05:52:43;2.12;;;1.92;;
51961;SDS011;37986;51.238;17.128;2022-08-21T05:55:09;2.00;;;1.80;;
51961;SDS011;37986;51.238;17.128;2022-08-21T05:57:35;2.02;;;1.67;;
51961;SDS011;37986;51.238;17.128;2022-08-21T06:00:01;2.60;;;1.92;;
51961;SDS011;37986;51.238;17.128;2022-08-21T06:02:29;2.58;;;1.30;;
51961;SDS011;37986;51.238;17.128;2022-08-21T06:04:56;1.77;;;1.50;;
51961;SDS011;37986;51.238;17.128;2022-08-21T06:07:22;1.65;;;1.45;;
51961;SDS011;37986;51.238;17.128;2022-08-21T06:09:48;1.80;;;1.50;;
51961;SDS011;37986;51.238;17.128;2022-08-21T06:12:17;3.12;;;2.62;;
51961;SDS011;37986;51.238;17.128;2022-08-21T06:14:45;2.77;;;2.30;;
51961;SDS011;37986;51.238;17.128;2022-08-21T06:17:11;2.50;;;2.30;;
51961;SDS011;37986;51.238;17.128;2022-08-21T06:19:39;2.77;;;2.20;;
51961;SDS011;37986;51.238;17.128;2022-08-21T06:22:05;2.83;;;2.62;;
51961;SDS011;37986;51.238;17.128;2022-08-21T06:24:31;2.60;;;2.40;;
51961;SDS011;37986;51.238;17.128;2022-08-21T06:26:57;3.47;;;3.17;;
51961;SDS011;37986;51.238;17.128;2022-08-21T06:29:23;3.58;;;3.33;;
51961;SDS011;37986;51.238;17.128;2022-08-21T06:31:50;5.25;;;4.85;;
51961;SDS011;37986;51.238;17.128;2022-08-21T06:34:17;3.85;;;3.45;;
51961;SDS011;37986;51.238;17.128;2022-08-21T06:36:43;2.85;;;2.65;;
51961;SDS011;37986;51.238;17.128;2022-08-21T06:39:09;3.30;;;3.00;;
51961;SDS011;37986;51.238;17.128;2022-08-21T06:41:35;5.05;;;4.65;;
51961;SDS011;37986;51.238;17.128;2022-08-21T06:44:01;2.60;;;2.40;;
51961;SDS011;37986;51.238;17.128;2022-08-21T06:46:28;4.60;;;2.10;;
51961;SDS011;37986;51.238;17.128;2022-08-21T06:48:55;3.72;;;1.80;;
51961;SDS011;37986;51.238;17.128;2022-08-21T06:51:22;2.98;;;2.50;;
51961;SDS011;37986;51.238;17.128;2022-08-21T06:53:51;3.65;;;2.65;;
51961;SDS011;37986;51.238;17.128;2022-08-21T06:56:17;2.65;;;2.22;;
51961;SDS011;37986;51.238;17.128;2022-08-21T06:58:44;4.03;;;2.00;;
51961;SDS011;37986;51.238;17.128;2022-08-21T07:01:10;6.62;;;3.10;;
51961;SDS011;37986;51.238;17.128;2022-08-21T07:03:37;5.30;;;2.90;;
51961;SDS011;37986;51.238;17.128;2022-08-21T07:06:08;8.60;;;4.20;;
51961;SDS011;37986;51.238;17.128;2022-08-21T07:08:36;4.20;;;3.72;;
51961;SDS011;37986;51.238;17.128;2022-08-21T07:11:07;4.17;;;3.55;;
51961;SDS011;37986;51.238;17.128;2022-08-21T07:13:36;8.78;;;4.72;;
51961;SDS011;37986;51.238;17.128;2022-08-21T07:16:02;4.58;;;4.17;;
51961;SDS011;37986;51.238;17.128;2022-08-21T07:18:28;6.65;;;4.60;;
51961;SDS011;37986;51.238;17.128;2022-08-21T07:20:54;6.15;;;4.22;;
51961;SDS011;37986;51.238;17.128;2022-08-21T07:23:22;5.53;;;4.67;;
51961;SDS011;37986;51.238;17.128;2022-08-21T07:25:54;5.40;;;4.45;;
51961;SDS011;37986;51.238;17.128;2022-08-21T07:28:20;5.00;;;4.35;;
51961;SDS011;37986;51.238;17.128;2022-08-21T07:30:46;7.65;;;4.33;;
51961;SDS011;37986;51.238;17.128;2022-08-21T07:33:18;5.50;;;4.12;;
51961;SDS011;37986;51.238;17.128;2022-08-21T07:35:44;7.42;;;3.60;;
51961;SDS011;37986;51.238;17.128;2022-08-21T07:38:10;4.80;;;3.00;;
51961;SDS011;37986;51.238;17.128;2022-08-21T07:40:36;8.83;;;3.12;;
51961;SDS011;37986;51.238;17.128;2022-08-21T07:43:02;4.05;;;3.40;;
51961;SDS011;37986;51.238;17.128;2022-08-21T07:45:28;4.47;;;3.17;;
51961;SDS011;37986;51.238;17.128;2022-08-21T07:47:54;5.95;;;2.83;;
51961;SDS011;37986;51.238;17.128;2022-08-21T07:50:20;5.10;;;2.90;;
51961;SDS011;37986;51.238;17.128;2022-08-21T07:52:46;4.87;;;2.80;;
51961;SDS011;37986;51.238;17.128;2022-08-21T07:55:13;8.45;;;3.65;;
51961;SDS011;37986;51.238;17.128;2022-08-21T07:57:42;4.25;;;2.75;;
51961;SDS011;37986;51.238;17.128;2022-08-21T08:00:09;6.17;;;2.85;;
51961;SDS011;37986;51.238;17.128;2022-08-21T08:02:40;5.08;;;2.85;;
51961;SDS011;37986;51.238;17.128;2022-08-21T08:05:07;4.60;;;3.00;;
51961;SDS011;37986;51.238;17.128;2022-08-21T08:07:37;5.70;;;3.07;;
51961;SDS011;37986;51.238;17.128;2022-08-21T08:10:04;5.17;;;2.80;;
51961;SDS011;37986;51.238;17.128;2022-08-21T08:12:33;3.22;;;2.37;;
51961;SDS011;37986;51.238;17.128;2022-08-21T08:15:01;3.12;;;2.40;;
51961;SDS011;37986;51.238;17.128;2022-08-21T08:17:27;4.33;;;2.27;;
51961;SDS011;37986;51.238;17.128;2022-08-21T08:19:53;3.35;;;2.30;;
51961;SDS011;37986;51.238;17.128;2022-08-21T08:22:21;3.98;;;2.17;;
51961;SDS011;37986;51.238;17.128;2022-08-21T08:24:51;3.85;;;2.33;;
51961;SDS011;37986;51.238;17.128;2022-08-21T08:27:18;3.40;;;2.30;;
51961;SDS011;37986;51.238;17.128;2022-08-21T08:29:45;4.03;;;2.08;;
51961;SDS011;37986;51.238;17.128;2022-08-21T08:32:12;4.80;;;1.92;;
51961;SDS011;37986;51.238;17.128;2022-08-21T08:34:39;3.95;;;2.00;;
51961;SDS011;37986;51.238;17.128;2022-08-21T08:37:05;3.12;;;1.87;;
51961;SDS011;37986;51.238;17.128;2022-08-21T08:39:34;3.27;;;1.72;;
51961;SDS011;37986;51.238;17.128;2022-08-21T08:44:40;3.47;;;2.25;;
51961;SDS011;37986;51.238;17.128;2022-08-21T08:47:08;2.70;;;1.80;;
51961;SDS011;37986;51.238;17.128;2022-08-21T08:49:37;1.90;;;1.70;;
51961;SDS011;37986;51.238;17.128;2022-08-21T08:57:35;2.27;;;1.57;;
51961;SDS011;37986;51.238;17.128;2022-08-21T09:00:09;2.92;;;1.90;;
51961;SDS011;37986;51.238;17.128;2022-08-21T09:02:38;1.98;;;1.70;;
51961;SDS011;37986;51.238;17.128;2022-08-21T09:05:07;2.62;;;1.80;;
51961;SDS011;37986;51.238;17.128;2022-08-21T09:10:38;4.33;;;1.80;;
51961;SDS011;37986;51.238;17.128;2022-08-21T09:22:43;1.40;;;1.30;;
51961;SDS011;37986;51.238;17.128;2022-08-21T09:25:34;3.12;;;1.80;;
51961;SDS011;37986;51.238;17.128;2022-08-21T09:28:16;2.15;;;1.17;;
51961;SDS011;37986;51.238;17.128;2022-08-21T09:30:42;1.40;;;1.30;;
51961;SDS011;37986;51.238;17.128;2022-08-21T09:33:09;1.67;;;1.30;;
51961;SDS011;37986;51.238;17.128;2022-08-21T09:35:47;2.52;;;1.40;;
51961;SDS011;37986;51.238;17.128;2022-08-21T09:41:06;1.52;;;1.10;;
51961;SDS011;37986;51.238;17.128;2022-08-21T09:43:34;1.57;;;1.15;;
51961;SDS011;37986;51.238;17.128;2022-08-21T09:46:11;1.15;;;1.05;;
51961;SDS011;37986;51.238;17.128;2022-08-21T09:48:48;1.60;;;1.00;;
51961;SDS011;37986;51.238;17.128;2022-08-21T09:51:18;1.35;;;0.98;;
51961;SDS011;37986;51.238;17.128;2022-08-21T09:53:55;1.37;;;1.27;;
51961;SDS011;37986;51.238;17.128;2022-08-21T09:56:39;1.35;;;1.05;;
51961;SDS011;37986;51.238;17.128;2022-08-21T09:59:29;1.72;;;1.20;;
51961;SDS011;37986;51.238;17.128;2022-08-21T10:01:59;1.40;;;1.20;;
51961;SDS011;37986;51.238;17.128;2022-08-21T10:04:29;1.65;;;1.40;;
51961;SDS011;37986;51.238;17.128;2022-08-21T10:07:06;3.67;;;1.20;;
51961;SDS011;37986;51.238;17.128;2022-08-21T10:09:38;1.62;;;1.32;;
51961;SDS011;37986;51.238;17.128;2022-08-21T10:14:50;4.00;;;1.77;;
51961;SDS011;37986;51.238;17.128;2022-08-21T10:17:52;2.35;;;1.60;;
51961;SDS011;37986;51.238;17.128;2022-08-21T10:23:40;2.62;;;1.60;;
51961;SDS011;37986;51.238;17.128;2022-08-21T10:29:11;1.90;;;1.70;;
51961;SDS011;37986;51.238;17.128;2022-08-21T10:40:42;3.90;;;1.80;;
51961;SDS011;37986;51.238;17.128;2022-08-21T10:46:04;2.10;;;1.60;;
51961;SDS011;37986;51.238;17.128;2022-08-21T10:51:24;4.55;;;2.52;;
51961;SDS011;37986;51.238;17.128;2022-08-21T10:54:21;3.98;;;1.67;;
51961;SDS011;37986;51.238;17.128;2022-08-21T10:56:58;2.80;;;1.67;;
51961;SDS011;37986;51.238;17.128;2022-08-21T10:59:28;3.80;;;2.00;;
51961;SDS011;37986;51.238;17.128;2022-08-21T11:02:57;3.30;;;1.98;;
51961;SDS011;37986;51.238;17.128;2022-08-21T11:05:37;2.37;;;1.65;;
51961;SDS011;37986;51.238;17.128;2022-08-21T11:13:49;4.58;;;1.90;;
51961;SDS011;37986;51.238;17.128;2022-08-21T11:21:37;3.60;;;1.85;;
51961;SDS011;37986;51.238;17.128;2022-08-21T11:27:24;4.78;;;2.12;;
51961;SDS011;37986;51.238;17.128;2022-08-21T11:30:08;3.62;;;2.25;;
51961;SDS011;37986;51.238;17.128;2022-08-21T11:46:24;3.02;;;2.60;;
51961;SDS011;37986;51.238;17.128;2022-08-21T11:52:18;4.22;;;2.77;;
51961;SDS011;37986;51.238;17.128;2022-08-21T11:54:49;2.83;;;2.45;;
51961;SDS011;37986;51.238;17.128;2022-08-21T11:57:35;4.90;;;2.85;;
51961;SDS011;37986;51.238;17.128;2022-08-21T12:00:04;3.55;;;2.60;;
51961;SDS011;37986;51.238;17.128;2022-08-21T12:03:08;4.72;;;2.58;;
51961;SDS011;37986;51.238;17.128;2022-08-21T12:05:42;3.50;;;2.58;;
51961;SDS011;37986;51.238;17.128;2022-08-21T12:08:13;4.90;;;2.67;;
51961;SDS011;37986;51.238;17.128;2022-08-21T12:10:47;5.67;;;3.05;;
51961;SDS011;37986;51.238;17.128;2022-08-21T12:13:28;4.17;;;2.98;;
51961;SDS011;37986;51.238;17.128;2022-08-21T12:16:04;9.78;;;3.02;;
51961;SDS011;37986;51.238;17.128;2022-08-21T12:18:36;4.53;;;3.08;;
51961;SDS011;37986;51.238;17.128;2022-08-21T12:21:26;4.95;;;2.95;;
51961;SDS011;37986;51.238;17.128;2022-08-21T12:24:00;4.95;;;3.12;;
51961;SDS011;37986;51.238;17.128;2022-08-21T12:26:56;4.30;;;3.00;;
51961;SDS011;37986;51.238;17.128;2022-08-21T12:29:35;4.22;;;3.15;;
51961;SDS011;37986;51.238;17.128;2022-08-21T12:32:24;6.17;;;2.90;;
51961;SDS011;37986;51.238;17.128;2022-08-21T12:34:45;5.15;;;2.80;;
51961;SDS011;37986;51.238;17.128;2022-08-21T12:37:18;4.60;;;2.72;;
51961;SDS011;37986;51.238;17.128;2022-08-21T12:42:50;4.53;;;3.50;;
51961;SDS011;37986;51.238;17.128;2022-08-21T12:45:20;5.78;;;3.30;;
51961;SDS011;37986;51.238;17.128;2022-08-21T12:56:23;4.47;;;2.92;;
51961;SDS011;37986;51.238;17.128;2022-08-21T12:58:57;3.62;;;2.67;;
51961;SDS011;37986;51.238;17.128;2022-08-21T13:01:31;5.75;;;3.20;;
51961;SDS011;37986;51.238;17.128;2022-08-21T13:04:08;5.95;;;3.17;;
51961;SDS011;37986;51.238;17.128;2022-08-21T13:06:38;4.35;;;3.10;;
51961;SDS011;37986;51.238;17.128;2022-08-21T13:09:10;4.67;;;2.92;;
51961;SDS011;37986;51.238;17.128;2022-08-21T13:11:43;4.58;;;3.08;;
51961;SDS011;37986;51.238;17.128;2022-08-21T13:14:30;3.50;;;3.02;;
51961;SDS011;37986;51.238;17.128;2022-08-21T13:16:57;4.42;;;3.02;;
51961;SDS011;37986;51.238;17.128;2022-08-21T13:19:24;4.60;;;2.80;;
51961;SDS011;37986;51.238;17.128;2022-08-21T13:21:51;5.75;;;3.22;;
51961;SDS011;37986;51.238;17.128;2022-08-21T13:26:49;6.78;;;3.47;;
51961;SDS011;37986;51.238;17.128;2022-08-21T13:29:17;4.37;;;2.98;;
51961;SDS011;37986;51.238;17.128;2022-08-21T13:31:49;5.15;;;3.00;;
51961;SDS011;37986;51.238;17.128;2022-08-21T13:34:23;3.83;;;3.20;;
51961;SDS011;37986;51.238;17.128;2022-08-21T13:36:54;4.12;;;3.35;;
51961;SDS011;37986;51.238;17.128;2022-08-21T13:39:23;4.83;;;3.52;;
51961;SDS011;37986;51.238;17.128;2022-08-21T13:41:51;4.70;;;3.47;;
51961;SDS011;37986;51.238;17.128;2022-08-21T13:44:23;7.15;;;3.95;;
51961;SDS011;37986;51.238;17.128;2022-08-21T13:47:04;5.10;;;3.35;;
51961;SDS011;37986;51.238;17.128;2022-08-21T13:49:39;5.22;;;3.67;;
51961;SDS011;37986;51.238;17.128;2022-08-21T13:52:18;4.45;;;3.40;;
51961;SDS011;37986;51.238;17.128;2022-08-21T13:54:51;4.17;;;3.50;;
51961;SDS011;37986;51.238;17.128;2022-08-21T14:02:51;6.30;;;3.77;;
51961;SDS011;37986;51.238;17.128;2022-08-21T14:05:21;6.70;;;4.10;;
51961;SDS011;37986;51.238;17.128;2022-08-21T14:07:50;4.47;;;4.05;;
51961;SDS011;37986;51.238;17.128;2022-08-21T14:10:18;10.38;;;3.65;;
51961;SDS011;37986;51.238;17.128;2022-08-21T14:12:49;5.08;;;3.92;;
51961;SDS011;37986;51.238;17.128;2022-08-21T14:15:19;4.30;;;3.87;;
51961;SDS011;37986;51.238;17.128;2022-08-21T14:17:54;6.05;;;4.12;;
51961;SDS011;37986;51.238;17.128;2022-08-21T14:20:33;6.10;;;4.22;;
51961;SDS011;37986;51.238;17.128;2022-08-21T14:23:00;5.70;;;4.05;;
51961;SDS011;37986;51.238;17.128;2022-08-21T14:25:29;6.10;;;3.95;;
51961;SDS011;37986;51.238;17.128;2022-08-21T14:30:42;4.45;;;3.65;;
51961;SDS011;37986;51.238;17.128;2022-08-21T14:33:13;6.65;;;3.87;;
51961;SDS011;37986;51.238;17.128;2022-08-21T14:35:57;5.12;;;3.72;;
51961;SDS011;37986;51.238;17.128;2022-08-21T14:38:24;6.87;;;4.62;;
51961;SDS011;37986;51.238;17.128;2022-08-21T14:40:57;5.37;;;3.72;;
51961;SDS011;37986;51.238;17.128;2022-08-21T14:43:24;6.17;;;4.22;;
51961;SDS011;37986;51.238;17.128;2022-08-21T14:45:52;5.45;;;4.37;;
51961;SDS011;37986;51.238;17.128;2022-08-21T14:48:19;5.83;;;3.92;;
51961;SDS011;37986;51.238;17.128;2022-08-21T14:50:45;4.80;;;4.10;;
51961;SDS011;37986;51.238;17.128;2022-08-21T14:53:12;4.72;;;4.25;;
51961;SDS011;37986;51.238;17.128;2022-08-21T14:55:38;4.50;;;4.10;;
51961;SDS011;37986;51.238;17.128;2022-08-21T14:58:24;4.87;;;4.25;;
51961;SDS011;37986;51.238;17.128;2022-08-21T15:00:51;4.50;;;4.10;;
51961;SDS011;37986;51.238;17.128;2022-08-21T15:03:18;4.97;;;4.15;;
51961;SDS011;37986;51.238;17.128;2022-08-21T15:05:47;6.37;;;4.53;;
51961;SDS011;37986;51.238;17.128;2022-08-21T15:08:14;7.70;;;5.28;;
51961;SDS011;37986;51.238;17.128;2022-08-21T15:10:40;6.03;;;4.30;;
51961;SDS011;37986;51.238;17.128;2022-08-21T15:13:06;5.78;;;4.78;;
51961;SDS011;37986;51.238;17.128;2022-08-21T15:15:34;6.62;;;5.30;;
51961;SDS011;37986;51.238;17.128;2022-08-21T15:18:09;5.08;;;4.58;;
51961;SDS011;37986;51.238;17.128;2022-08-21T15:20:34;5.78;;;4.50;;
51961;SDS011;37986;51.238;17.128;2022-08-21T15:23:01;5.33;;;4.85;;
51961;SDS011;37986;51.238;17.128;2022-08-21T15:25:28;8.00;;;5.12;;
51961;SDS011;37986;51.238;17.128;2022-08-21T15:27:55;6.72;;;5.45;;
51961;SDS011;37986;51.238;17.128;2022-08-21T15:30:22;5.42;;;4.92;;
51961;SDS011;37986;51.238;17.128;2022-08-21T15:32:48;7.08;;;5.22;;
51961;SDS011;37986;51.238;17.128;2022-08-21T15:35:16;6.85;;;5.30;;
51961;SDS011;37986;51.238;17.128;2022-08-21T15:37:42;7.17;;;5.30;;
51961;SDS011;37986;51.238;17.128;2022-08-21T15:40:08;6.30;;;5.10;;
51961;SDS011;37986;51.238;17.128;2022-08-21T15:42:35;5.53;;;4.55;;
51961;SDS011;37986;51.238;17.128;2022-08-21T15:45:03;7.33;;;4.75;;
51961;SDS011;37986;51.238;17.128;2022-08-21T15:47:35;6.85;;;4.45;;
51961;SDS011;37986;51.238;17.128;2022-08-21T15:50:01;6.83;;;4.60;;
51961;SDS011;37986;51.238;17.128;2022-08-21T15:52:29;5.30;;;4.80;;
51961;SDS011;37986;51.238;17.128;2022-08-21T15:54:55;8.10;;;4.97;;
51961;SDS011;37986;51.238;17.128;2022-08-21T15:57:22;5.65;;;4.58;;
51961;SDS011;37986;51.238;17.128;2022-08-21T15:59:50;6.55;;;4.65;;
51961;SDS011;37986;51.238;17.128;2022-08-21T16:02:30;9.13;;;4.60;;
51961;SDS011;37986;51.238;17.128;2022-08-21T16:04:58;8.10;;;4.62;;
51961;SDS011;37986;51.238;17.128;2022-08-21T16:07:24;7.20;;;4.40;;
51961;SDS011;37986;51.238;17.128;2022-08-21T16:09:50;7.62;;;4.65;;
51961;SDS011;37986;51.238;17.128;2022-08-21T16:12:19;5.47;;;4.15;;
51961;SDS011;37986;51.238;17.128;2022-08-21T16:14:53;4.33;;;3.45;;
51961;SDS011;37986;51.238;17.128;2022-08-21T16:17:21;4.45;;;3.92;;
51961;SDS011;37986;51.238;17.128;2022-08-21T16:19:51;7.53;;;3.98;;
51961;SDS011;37986;51.238;17.128;2022-08-21T16:22:17;4.37;;;3.60;;
51961;SDS011;37986;51.238;17.128;2022-08-21T16:24:42;3.70;;;3.30;;
51961;SDS011;37986;51.238;17.128;2022-08-21T16:27:08;6.70;;;3.55;;
51961;SDS011;37986;51.238;17.128;2022-08-21T16:29:35;3.87;;;3.42;;